createdAt,value
2023-03-28T00:01:03.521Z,2.30
2023-03-28T00:03:35.356Z,2.40
2023-03-28T00:06:05.535Z,2.50
2023-03-28T00:08:32.768Z,2.47
2023-03-28T00:11:21.597Z,2.57
2023-03-28T00:14:00.832Z,2.47
2023-03-28T00:16:37.559Z,2.73
2023-03-28T00:19:14.424Z,2.60
2023-03-28T00:21:46.834Z,2.50
2023-03-28T00:24:17.404Z,2.80
2023-03-28T00:26:45.454Z,2.37
2023-03-28T00:29:20.789Z,2.70
2023-03-28T00:31:49.740Z,2.67
2023-03-28T00:34:17.422Z,2.67
2023-03-28T00:36:44.362Z,2.60
2023-03-28T00:39:11.496Z,2.87
2023-03-28T00:41:42.587Z,2.60
2023-03-28T00:44:53.492Z,2.80
2023-03-28T00:47:26.334Z,2.73
2023-03-28T00:50:00.150Z,2.33
2023-03-28T00:52:30.246Z,2.60
2023-03-28T00:54:59.435Z,2.70
2023-03-28T00:57:28.552Z,2.87
2023-03-28T00:59:55.891Z,2.53
2023-03-28T01:02:22.876Z,2.60
2023-03-28T01:05:00.760Z,3.13
2023-03-28T01:07:35.161Z,2.43
2023-03-28T01:10:05.064Z,2.63
2023-03-28T01:12:33.102Z,2.73
2023-03-28T01:15:02.989Z,2.67
2023-03-28T01:17:30.735Z,2.50
2023-03-28T01:20:35.860Z,2.60
2023-03-28T01:23:46.581Z,2.50
2023-03-28T01:26:47.205Z,2.70
2023-03-28T01:29:38.666Z,2.90
2023-03-28T01:32:43.286Z,2.83
2023-03-28T01:35:53.092Z,2.77
2023-03-28T01:38:34.851Z,3.10
2023-03-28T01:41:19.703Z,2.97
2023-03-28T01:44:18.956Z,2.80
2023-03-28T01:47:21.542Z,2.73
2023-03-28T01:50:25.172Z,3.00
2023-03-28T01:53:24.012Z,3.13
2023-03-28T01:56:10.267Z,3.27
2023-03-28T01:59:02.497Z,3.50
2023-03-28T02:01:45.081Z,3.47
2023-03-28T02:04:21.440Z,3.10
2023-03-28T02:06:51.506Z,3.50
2023-03-28T02:09:24.919Z,3.57
2023-03-28T02:12:03.732Z,3.47
2023-03-28T02:14:39.788Z,3.63
2023-03-28T02:17:15.651Z,3.20
2023-03-28T02:20:08.777Z,3.53
2023-03-28T02:22:45.987Z,3.63
2023-03-28T02:25:13.178Z,4.03
2023-03-28T02:27:44.555Z,4.20
2023-03-28T02:30:12.439Z,3.43
2023-03-28T02:32:40.289Z,4.27
2023-03-28T02:35:08.977Z,4.20
2023-03-28T02:37:54.780Z,4.17
2023-03-28T02:40:52.338Z,4.07
2023-03-28T02:43:45.064Z,3.93
2023-03-28T02:46:29.911Z,4.57
2023-03-28T02:49:49.609Z,4.80
2023-03-28T02:52:52.116Z,5.17
2023-03-28T02:55:59.179Z,5.17
2023-03-28T02:58:55.812Z,5.53
2023-03-28T03:01:29.820Z,5.13
2023-03-28T03:04:00.577Z,5.90
2023-03-28T03:06:27.367Z,5.50
2023-03-28T03:08:54.111Z,5.27
2023-03-28T03:11:21.309Z,5.20
2023-03-28T03:13:48.112Z,5.23
2023-03-28T03:16:14.882Z,5.03
2023-03-28T03:18:41.797Z,4.93
2023-03-28T03:21:08.791Z,5.73
2023-03-28T03:23:36.612Z,5.83
2023-03-28T03:26:03.615Z,5.80
2023-03-28T03:28:30.872Z,5.37
2023-03-28T03:30:57.639Z,5.57
2023-03-28T03:33:24.452Z,5.10
2023-03-28T03:35:51.237Z,6.13
2023-03-28T03:38:17.998Z,5.60
2023-03-28T03:40:44.716Z,5.30
2023-03-28T03:43:11.418Z,5.43
2023-03-28T03:45:40.501Z,5.87
2023-03-28T03:48:07.349Z,5.37
2023-03-28T03:50:34.283Z,5.30
2023-03-28T03:53:00.990Z,5.33
2023-03-28T03:55:27.728Z,6.33
2023-03-28T03:57:54.530Z,4.90
2023-03-28T04:00:21.536Z,5.20
2023-03-28T04:02:48.924Z,4.70
2023-03-28T04:05:15.999Z,5.30
2023-03-28T04:07:42.897Z,4.73
2023-03-28T04:10:10.222Z,5.43
2023-03-28T04:12:36.938Z,5.80
2023-03-28T04:15:06.007Z,5.67
2023-03-28T04:17:35.144Z,5.17
2023-03-28T04:20:13.378Z,5.23
2023-03-28T04:22:45.504Z,5.23
2023-03-28T04:25:13.810Z,5.20
2023-03-28T04:27:46.207Z,5.17
2023-03-28T04:30:15.325Z,6.13
2023-03-28T04:32:42.132Z,5.37
2023-03-28T04:35:09.190Z,5.17
2023-03-28T04:37:37.697Z,5.87
2023-03-28T04:40:11.806Z,6.03
2023-03-28T04:42:39.364Z,5.90
2023-03-28T04:45:08.249Z,5.57
2023-03-28T04:47:37.448Z,5.77
2023-03-28T04:50:04.646Z,5.07
2023-03-28T04:52:31.357Z,5.83
2023-03-28T04:54:58.109Z,5.63
2023-03-28T04:57:24.850Z,5.73
2023-03-28T04:59:52.104Z,5.93
2023-03-28T05:02:18.867Z,6.30
2023-03-28T05:04:45.627Z,5.77
2023-03-28T05:07:12.411Z,5.47
2023-03-28T05:09:39.147Z,6.37
2023-03-28T05:12:06.222Z,5.63
2023-03-28T05:14:33.352Z,5.80
2023-03-28T05:17:00.168Z,5.17
2023-03-28T05:19:26.997Z,6.27
2023-03-28T05:21:54.288Z,5.87
2023-03-28T05:24:21.085Z,5.80
2023-03-28T05:26:47.782Z,5.40
2023-03-28T05:29:14.618Z,5.50
2023-03-28T05:31:41.462Z,5.27
2023-03-28T05:34:08.344Z,6.13
2023-03-28T05:36:35.070Z,5.30
2023-03-28T05:39:01.900Z,5.57
2023-03-28T05:41:28.718Z,6.00
2023-03-28T05:43:55.575Z,5.50
2023-03-28T05:46:22.332Z,4.97
2023-03-28T05:48:49.510Z,5.17
2023-03-28T05:51:16.989Z,4.93
2023-03-28T05:53:43.881Z,5.33
2023-03-28T05:56:10.872Z,5.57
2023-03-28T05:58:37.633Z,4.70
2023-03-28T06:01:05.541Z,4.73
2023-03-28T06:03:32.491Z,4.67
2023-03-28T06:05:59.971Z,5.03
2023-03-28T06:08:27.383Z,5.23
2023-03-28T06:10:54.298Z,5.20
2023-03-28T06:13:21.346Z,4.67
2023-03-28T06:15:48.190Z,4.50
2023-03-28T06:18:14.977Z,4.70
2023-03-28T06:20:41.715Z,4.17
2023-03-28T06:23:08.439Z,4.50
2023-03-28T06:25:35.211Z,4.53
2023-03-28T06:28:01.997Z,3.87
2023-03-28T06:30:28.812Z,5.43
2023-03-28T06:32:55.631Z,4.87
2023-03-28T06:35:22.509Z,4.23
2023-03-28T06:37:49.231Z,4.80
2023-03-28T06:40:16.110Z,4.20
2023-03-28T06:42:43.207Z,4.43
2023-03-28T06:45:10.631Z,4.73
2023-03-28T06:47:40.666Z,4.23
2023-03-28T06:50:07.895Z,4.33
2023-03-28T06:52:34.840Z,4.80
2023-03-28T06:55:01.632Z,4.27
2023-03-28T06:57:28.360Z,4.47
2023-03-28T06:59:55.190Z,4.50
2023-03-28T07:02:21.948Z,3.67
2023-03-28T07:04:48.847Z,3.40
2023-03-28T07:07:15.609Z,3.93
2023-03-28T07:09:42.365Z,4.53
2023-03-28T07:12:09.112Z,4.50
2023-03-28T07:14:36.076Z,3.90
2023-03-28T07:17:02.970Z,3.90
2023-03-28T07:19:29.938Z,4.03
2023-03-28T07:21:56.737Z,4.30
2023-03-28T07:24:23.488Z,4.00
2023-03-28T07:26:51.173Z,3.10
2023-03-28T07:29:18.754Z,3.80
2023-03-28T07:31:45.688Z,3.30
2023-03-28T07:34:12.468Z,4.00
2023-03-28T07:36:39.629Z,3.30
2023-03-28T07:39:06.386Z,4.13
2023-03-28T07:41:33.114Z,3.60
2023-03-28T07:44:00.200Z,3.50
2023-03-28T07:46:27.169Z,4.00
2023-03-28T07:48:56.092Z,3.57
2023-03-28T07:51:22.879Z,3.30
2023-03-28T07:53:49.707Z,2.93
2023-03-28T07:56:16.483Z,3.40
2023-03-28T07:58:43.217Z,2.90
2023-03-28T08:01:12.645Z,3.70
2023-03-28T08:03:41.533Z,2.97
2023-03-28T08:06:20.659Z,2.50
2023-03-28T08:08:55.876Z,3.33
2023-03-28T08:11:22.870Z,2.77
2023-03-28T08:13:49.611Z,3.10
2023-03-28T08:16:16.344Z,2.73
2023-03-28T08:18:43.136Z,2.73
2023-03-28T08:21:10.146Z,2.50
2023-03-28T08:23:36.873Z,2.63
2023-03-28T08:26:06.214Z,2.83
2023-03-28T08:28:35.842Z,2.80
2023-03-28T08:31:09.948Z,3.23
2023-03-28T08:33:36.915Z,2.37
2023-03-28T08:36:03.972Z,2.97
2023-03-28T08:38:33.503Z,2.50
2023-03-28T08:41:28.264Z,2.30
2023-03-28T08:44:27.519Z,2.30
2023-03-28T08:47:06.018Z,2.50
2023-03-28T08:49:44.727Z,2.37
2023-03-28T08:52:15.891Z,2.57
2023-03-28T08:54:58.613Z,2.57
2023-03-28T08:57:29.733Z,2.30
2023-03-28T09:00:17.133Z,2.20
2023-03-28T09:02:44.787Z,2.97
2023-03-28T09:05:23.667Z,2.20
2023-03-28T09:08:00.967Z,2.30
2023-03-28T09:11:08.487Z,3.03
2023-03-28T09:13:41.831Z,3.10
2023-03-28T09:16:39.485Z,2.73
2023-03-28T09:19:47.835Z,2.33
2023-03-28T09:22:39.116Z,1.97
2023-03-28T09:25:12.451Z,2.10
2023-03-28T09:27:59.725Z,2.30
2023-03-28T09:30:32.464Z,1.90
2023-03-28T09:33:03.075Z,1.83
2023-03-28T09:35:32.153Z,2.00
2023-03-28T09:38:21.646Z,2.37
2023-03-28T09:40:52.876Z,2.10
2023-03-28T09:43:40.485Z,1.73
2023-03-28T09:46:14.814Z,1.77
2023-03-28T09:48:42.088Z,1.80
2023-03-28T09:51:16.742Z,1.90
2023-03-28T09:53:43.870Z,1.90
2023-03-28T09:56:22.178Z,1.70
2023-03-28T09:58:52.326Z,2.00
2023-03-28T10:01:41.930Z,1.70
2023-03-28T10:04:16.693Z,1.70
2023-03-28T10:06:45.303Z,1.83
2023-03-28T10:09:21.793Z,1.90
2023-03-28T10:12:00.858Z,1.90
2023-03-28T10:14:39.292Z,1.73
2023-03-28T10:17:28.170Z,1.70
2023-03-28T10:20:01.809Z,1.80
2023-03-28T10:22:33.670Z,1.90
2023-03-28T10:25:04.036Z,1.70
2023-03-28T10:27:32.786Z,1.70
2023-03-28T10:30:16.671Z,2.30
2023-03-28T10:32:43.816Z,1.60
2023-03-28T10:35:27.680Z,2.00
2023-03-28T10:37:55.542Z,1.70
2023-03-28T10:40:24.651Z,1.60
2023-03-28T10:42:52.226Z,1.40
2023-03-28T10:45:37.257Z,1.70
2023-03-28T10:48:15.993Z,2.30
2023-03-28T10:50:52.409Z,1.80
2023-03-28T10:53:51.224Z,1.80
2023-03-28T10:56:41.434Z,1.87
2023-03-28T10:59:32.650Z,1.80
2023-03-28T11:02:17.857Z,1.93
2023-03-28T11:04:50.784Z,1.63
2023-03-28T11:07:21.526Z,1.87
2023-03-28T11:10:00.743Z,1.77
2023-03-28T11:12:54.223Z,1.90
2023-03-28T11:15:33.877Z,2.00
2023-03-28T11:18:15.153Z,2.27
2023-03-28T11:21:09.461Z,2.13
2023-03-28T11:23:53.607Z,1.90
2023-03-28T11:26:31.797Z,1.73
2023-03-28T11:29:18.379Z,2.30
2023-03-28T11:32:23.420Z,2.30
2023-03-28T11:35:05.478Z,2.50
2023-03-28T11:37:42.067Z,2.60
2023-03-28T11:40:23.067Z,1.50
2023-03-28T11:42:55.969Z,1.90
2023-03-28T11:45:42.006Z,1.73
2023-03-28T11:48:26.306Z,1.77
2023-03-28T11:51:04.424Z,1.90
2023-03-28T11:53:40.543Z,1.90
2023-03-28T11:56:53.284Z,2.07
2023-03-28T11:59:42.896Z,2.20
2023-03-28T12:02:31.288Z,2.03
2023-03-28T12:05:07.172Z,2.27
2023-03-28T12:07:57.904Z,1.97
2023-03-28T12:10:37.888Z,1.97
2023-03-28T12:13:45.499Z,1.90
2023-03-28T12:16:38.648Z,2.07
2023-03-28T12:19:14.804Z,2.53
2023-03-28T12:21:46.934Z,1.90
2023-03-28T12:24:43.080Z,2.00
2023-03-28T12:27:30.328Z,1.90
2023-03-28T12:30:20.546Z,1.67
2023-03-28T12:33:04.457Z,2.00
2023-03-28T12:35:52.719Z,2.00
2023-03-28T12:38:29.260Z,1.90
2023-03-28T12:41:04.003Z,1.80
2023-03-28T12:44:04.109Z,2.23
2023-03-28T12:46:45.960Z,2.00
2023-03-28T12:49:45.437Z,1.90
2023-03-28T12:52:28.236Z,2.17
2023-03-28T12:55:02.186Z,2.00
2023-03-28T12:57:46.052Z,2.23
2023-03-28T13:00:25.549Z,2.17
2023-03-28T13:03:07.977Z,1.60
2023-03-28T13:06:04.045Z,1.90
2023-03-28T13:08:50.313Z,2.00
2023-03-28T13:11:51.685Z,1.80
2023-03-28T13:14:36.360Z,1.63
2023-03-28T13:17:21.679Z,1.73
2023-03-28T13:20:15.944Z,1.90
2023-03-28T13:22:49.288Z,1.77
2023-03-28T13:25:26.653Z,2.00
2023-03-28T13:28:01.007Z,1.70
2023-03-28T13:30:32.697Z,1.60
2023-03-28T13:33:19.123Z,1.60
2023-03-28T13:36:12.882Z,2.00
2023-03-28T13:38:58.287Z,1.80
2023-03-28T13:41:55.102Z,2.00
2023-03-28T13:44:38.726Z,1.83
2023-03-28T13:47:06.089Z,1.53
2023-03-28T13:49:44.687Z,1.40
2023-03-28T13:52:25.511Z,2.00
2023-03-28T13:55:00.601Z,1.60
2023-03-28T13:57:28.696Z,1.80
2023-03-28T14:00:06.811Z,1.90
2023-03-28T14:02:41.337Z,1.60
2023-03-28T14:05:33.873Z,1.50
2023-03-28T14:08:15.925Z,1.67
2023-03-28T14:10:46.104Z,1.40
2023-03-28T14:13:24.400Z,1.80
2023-03-28T14:15:53.554Z,1.80
2023-03-28T14:18:36.423Z,2.07
2023-03-28T14:21:06.531Z,1.73
2023-03-28T14:23:48.159Z,1.87
2023-03-28T14:26:23.411Z,1.80
2023-03-28T14:28:51.949Z,2.33
2023-03-28T14:31:45.961Z,9.87
2023-03-28T14:34:32.087Z,11.80
2023-03-28T14:37:17.888Z,4.17
2023-03-28T14:39:47.234Z,1.57
2023-03-28T14:42:17.864Z,6.33
2023-03-28T14:44:51.838Z,3.00
2023-03-28T14:47:32.025Z,1.77
2023-03-28T14:50:01.333Z,1.90
2023-03-28T14:52:40.946Z,1.57
2023-03-28T14:55:16.492Z,1.60
2023-03-28T14:57:45.683Z,1.50
2023-03-28T15:00:22.075Z,1.50
2023-03-28T15:02:51.458Z,1.50
2023-03-28T15:05:22.116Z,1.33
2023-03-28T15:08:02.091Z,1.50
2023-03-28T15:10:30.011Z,1.93
2023-03-28T15:13:16.927Z,1.80
2023-03-28T15:15:47.801Z,1.90
2023-03-28T15:18:18.381Z,1.90
2023-03-28T15:20:51.938Z,2.30
2023-03-28T15:23:56.446Z,1.83
2023-03-28T15:26:54.842Z,1.20
2023-03-28T15:29:25.183Z,1.90
2023-03-28T15:32:02.821Z,1.60
2023-03-28T15:34:29.838Z,1.60
2023-03-28T15:37:06.790Z,2.00
2023-03-28T15:39:36.928Z,1.70
2023-03-28T15:42:18.974Z,2.70
2023-03-28T15:45:24.636Z,3.40
2023-03-28T15:47:55.701Z,1.70
2023-03-28T15:50:35.199Z,2.17
2023-03-28T15:53:14.432Z,1.93
2023-03-28T15:55:42.872Z,1.63
2023-03-28T15:58:20.857Z,1.50
2023-03-28T16:00:54.067Z,1.53
2023-03-28T16:03:21.145Z,1.83
2023-03-28T16:06:09.862Z,1.93
2023-03-28T16:08:45.416Z,1.90
2023-03-28T16:11:23.205Z,1.60
2023-03-28T16:13:51.035Z,1.80
2023-03-28T16:16:28.347Z,1.70
2023-03-28T16:18:55.644Z,1.40
2023-03-28T16:21:22.356Z,1.53
2023-03-28T16:23:49.084Z,1.40
2023-03-28T16:26:16.133Z,1.50
2023-03-28T16:28:42.861Z,1.50
2023-03-28T16:31:14.955Z,2.03
2023-03-28T16:33:41.769Z,1.70
2023-03-28T16:36:12.136Z,3.20
2023-03-28T16:38:41.176Z,1.90
2023-03-28T16:41:08.839Z,2.30
2023-03-28T16:43:37.018Z,2.10
2023-03-28T16:46:04.519Z,2.00
2023-03-28T16:48:32.307Z,2.23
2023-03-28T16:51:04.702Z,1.77
2023-03-28T16:53:33.626Z,2.30
2023-03-28T16:56:01.001Z,1.93
2023-03-28T16:58:29.790Z,2.10
2023-03-28T17:00:56.843Z,2.33
2023-03-28T17:03:24.349Z,2.23
2023-03-28T17:05:51.376Z,2.00
2023-03-28T17:08:18.102Z,2.20
2023-03-28T17:10:44.872Z,1.80
2023-03-28T17:13:11.615Z,1.90
2023-03-28T17:15:38.341Z,2.30
2023-03-28T17:18:05.668Z,2.30
2023-03-28T17:20:32.848Z,2.13
2023-03-28T17:22:59.702Z,1.90
2023-03-28T17:25:26.803Z,1.87
2023-03-28T17:27:53.572Z,1.70
2023-03-28T17:30:20.846Z,1.87
2023-03-28T17:32:47.729Z,1.50
2023-03-28T17:35:14.723Z,1.77
2023-03-28T17:37:41.689Z,1.73
2023-03-28T17:40:10.442Z,1.80
2023-03-28T17:42:37.249Z,1.70
2023-03-28T17:45:04.596Z,1.87
2023-03-28T17:47:31.393Z,1.90
2023-03-28T17:50:00.277Z,1.90
2023-03-28T17:52:32.045Z,2.00
2023-03-28T17:54:59.137Z,2.00
2023-03-28T17:57:27.423Z,2.07
2023-03-28T17:59:54.598Z,2.20
2023-03-28T18:02:21.589Z,2.00
2023-03-28T18:04:48.621Z,2.13
2023-03-28T18:07:17.666Z,1.90
2023-03-28T18:09:45.619Z,2.40
2023-03-28T18:12:13.230Z,2.43
2023-03-28T18:14:40.271Z,2.67
2023-03-28T18:17:07.096Z,3.70
2023-03-28T18:19:33.846Z,5.93
2023-03-28T18:22:00.644Z,6.87
2023-03-28T18:24:27.968Z,5.30
2023-03-28T18:26:55.571Z,4.93
2023-03-28T18:29:22.285Z,3.80
2023-03-28T18:31:49.572Z,3.63
2023-03-28T18:34:16.340Z,3.43
2023-03-28T18:36:43.726Z,4.23
2023-03-28T18:39:10.595Z,4.63
2023-03-28T18:41:37.974Z,5.90
2023-03-28T18:44:05.232Z,5.50
2023-03-28T18:46:32.236Z,5.50
2023-03-28T18:49:00.205Z,4.93
2023-03-28T18:51:27.846Z,4.63
2023-03-28T18:53:54.916Z,3.63
2023-03-28T18:56:21.918Z,3.70
2023-03-28T18:58:50.687Z,3.33
2023-03-28T19:01:18.726Z,3.00
2023-03-28T19:03:47.051Z,3.10
2023-03-28T19:06:15.758Z,3.40
2023-03-28T19:08:44.523Z,4.73
2023-03-28T19:11:14.641Z,5.30
2023-03-28T19:13:42.613Z,5.30
2023-03-28T19:16:15.426Z,3.47
2023-03-28T19:18:45.175Z,3.10
2023-03-28T19:21:13.318Z,3.40
2023-03-28T19:23:41.073Z,3.20
2023-03-28T19:26:10.901Z,2.83
2023-03-28T19:28:39.004Z,2.80
2023-03-28T19:31:10.628Z,2.77
2023-03-28T19:33:38.513Z,3.63
2023-03-28T19:36:06.943Z,4.43
2023-03-28T19:38:36.009Z,3.93
2023-03-28T19:41:09.670Z,4.67
2023-03-28T19:43:37.556Z,4.47
2023-03-28T19:46:08.480Z,4.20
2023-03-28T19:48:35.877Z,3.70
2023-03-28T19:51:03.294Z,3.03
2023-03-28T19:53:30.190Z,2.93
2023-03-28T19:55:59.820Z,2.47
2023-03-28T19:58:28.364Z,2.77
2023-03-28T20:00:56.682Z,2.33
2023-03-28T20:03:23.395Z,2.80
2023-03-28T20:05:50.530Z,2.50
2023-03-28T20:08:18.835Z,2.43
2023-03-28T20:10:50.363Z,2.50
2023-03-28T20:13:17.729Z,2.67
2023-03-28T20:15:46.955Z,2.70
2023-03-28T20:18:21.147Z,3.07
2023-03-28T20:20:55.490Z,2.90
2023-03-28T20:23:25.802Z,3.47
2023-03-28T20:25:53.937Z,3.20
2023-03-28T20:28:24.467Z,4.70
2023-03-28T20:30:53.761Z,7.10
2023-03-28T20:33:21.014Z,5.40
2023-03-28T20:35:57.310Z,4.93
2023-03-28T20:38:27.734Z,5.47
2023-03-28T20:40:54.477Z,4.00
2023-03-28T20:43:21.386Z,3.40
2023-03-28T20:45:53.817Z,3.30
2023-03-28T20:48:34.142Z,2.70
2023-03-28T20:51:05.971Z,2.83
2023-03-28T20:53:33.566Z,2.47
2023-03-28T20:56:03.859Z,2.60
2023-03-28T20:58:32.560Z,2.93
2023-03-28T21:01:02.148Z,2.60
2023-03-28T21:03:46.476Z,2.73
2023-03-28T21:06:26.380Z,2.40
2023-03-28T21:08:55.874Z,2.77
2023-03-28T21:11:26.313Z,2.53
2023-03-28T21:13:53.681Z,2.30
2023-03-28T21:16:21.575Z,2.17
2023-03-28T21:18:49.383Z,2.57
2023-03-28T21:21:18.627Z,2.50
2023-03-28T21:23:46.916Z,2.60
2023-03-28T21:26:21.218Z,2.93
2023-03-28T21:28:48.887Z,2.57
2023-03-28T21:31:24.601Z,2.70
2023-03-28T21:33:53.818Z,3.10
2023-03-28T21:36:20.952Z,2.77
2023-03-28T21:38:48.588Z,3.40
2023-03-28T21:41:16.554Z,2.77
2023-03-28T21:43:44.270Z,2.80
2023-03-28T21:46:12.576Z,2.80
2023-03-28T21:48:39.421Z,2.83
2023-03-28T21:51:06.674Z,3.17
2023-03-28T21:53:37.264Z,3.00
2023-03-28T21:56:06.472Z,2.50
2023-03-28T21:58:33.797Z,2.77
2023-03-28T22:01:02.821Z,2.33
2023-03-28T22:03:30.800Z,2.83
2023-03-28T22:05:57.804Z,2.50
2023-03-28T22:08:24.761Z,2.70
2023-03-28T22:10:55.584Z,2.63
2023-03-28T22:13:23.652Z,2.60
2023-03-28T22:15:52.354Z,2.43
2023-03-28T22:18:19.726Z,2.33
2023-03-28T22:20:52.941Z,2.73
2023-03-28T22:23:22.340Z,2.77
2023-03-28T22:25:49.645Z,2.70
2023-03-28T22:28:18.481Z,2.70
2023-03-28T22:30:45.497Z,2.23
2023-03-28T22:33:13.359Z,2.83
2023-03-28T22:35:40.507Z,2.67
2023-03-28T22:38:07.821Z,2.83
2023-03-28T22:40:34.898Z,3.03
2023-03-28T22:43:02.988Z,2.47
2023-03-28T22:45:29.967Z,2.53
2023-03-28T22:48:02.988Z,2.80
2023-03-28T22:50:30.165Z,2.93
2023-03-28T22:52:57.032Z,2.97
2023-03-28T22:55:24.489Z,2.87
2023-03-28T22:57:52.825Z,3.00
2023-03-28T23:00:22.973Z,2.80
2023-03-28T23:02:51.738Z,2.53
2023-03-28T23:05:20.162Z,2.83
2023-03-28T23:07:47.309Z,2.47
2023-03-28T23:10:19.004Z,2.60
2023-03-28T23:12:47.360Z,2.30
2023-03-28T23:15:15.022Z,2.90
2023-03-28T23:17:42.648Z,3.03
2023-03-28T23:20:14.518Z,2.43
2023-03-28T23:22:44.502Z,2.83
2023-03-28T23:25:14.646Z,2.70
2023-03-28T23:27:42.899Z,2.90
2023-03-28T23:30:12.288Z,2.77
2023-03-28T23:32:39.280Z,3.30
2023-03-28T23:35:07.373Z,2.50
2023-03-28T23:37:37.995Z,2.90
2023-03-28T23:40:06.276Z,2.43
2023-03-28T23:42:32.995Z,2.77
2023-03-28T23:44:59.687Z,2.67
2023-03-28T23:47:26.419Z,2.90
2023-03-28T23:49:53.185Z,2.60
2023-03-28T23:52:20.419Z,2.67
2023-03-28T23:54:47.464Z,2.40
2023-03-28T23:57:14.251Z,2.77
2023-03-28T23:59:41.034Z,2.50
